sensor_id;sensor_type;location;lat;lon;timestamp;P1;durP1;ratioP1;P2;durP2;ratioP2
23567;SDS011;11962;50.838;4.430;2022-12-18T00:02:09;78.53;;;35.35;;
23567;SDS011;11962;50.838;4.430;2022-12-18T00:04:35;77.60;;;33.55;;
23567;SDS011;11962;50.838;4.430;2022-12-18T00:07:01;69.50;;;32.47;;
23567;SDS011;11962;50.838;4.430;2022-12-18T00:09:27;69.53;;;31.98;;
23567;SDS011;11962;50.838;4.430;2022-12-18T00:11:52;67.95;;;31.88;;
23567;SDS011;11962;50.838;4.430;2022-12-18T00:14:18;66.07;;;32.33;;
23567;SDS011;11962;50.838;4.430;2022-12-18T00:16:59;64.00;;;30.83;;
23567;SDS011;11962;50.838;4.430;2022-12-18T00:19:25;72.45;;;34.05;;
23567;SDS011;11962;50.838;4.430;2022-12-18T00:21:51;68.97;;;30.95;;
23567;SDS011;11962;50.838;4.430;2022-12-18T00:24:17;68.40;;;31.67;;
23567;SDS011;11962;50.838;4.430;2022-12-18T00:26:43;79.40;;;33.70;;
23567;SDS011;11962;50.838;4.430;2022-12-18T00:29:10;77.20;;;32.97;;
23567;SDS011;11962;50.838;4.430;2022-12-18T00:31:45;69.25;;;31.67;;
23567;SDS011;11962;50.838;4.430;2022-12-18T00:34:12;74.50;;;33.05;;
23567;SDS011;11962;50.838;4.430;2022-12-18T00:36:38;71.53;;;30.67;;
23567;SDS011;11962;50.838;4.430;2022-12-18T00:39:05;66.88;;;30.48;;
23567;SDS011;11962;50.838;4.430;2022-12-18T00:41:31;63.13;;;28.67;;
23567;SDS011;11962;50.838;4.430;2022-12-18T00:44:16;63.67;;;29.20;;
23567;SDS011;11962;50.838;4.430;2022-12-18T00:46:43;62.65;;;29.38;;
23567;SDS011;11962;50.838;4.430;2022-12-18T00:49:09;63.78;;;27.30;;
23567;SDS011;11962;50.838;4.430;2022-12-18T00:51:39;63.67;;;28.35;;
23567;SDS011;11962;50.838;4.430;2022-12-18T00:54:05;64.47;;;30.45;;
23567;SDS011;11962;50.838;4.430;2022-12-18T00:56:30;69.95;;;31.48;;
23567;SDS011;11962;50.838;4.430;2022-12-18T00:58:56;63.35;;;30.35;;
23567;SDS011;11962;50.838;4.430;2022-12-18T01:01:34;67.72;;;29.42;;
23567;SDS011;11962;50.838;4.430;2022-12-18T01:04:01;68.25;;;29.38;;
23567;SDS011;11962;50.838;4.430;2022-12-18T01:06:27;67.57;;;29.83;;
23567;SDS011;11962;50.838;4.430;2022-12-18T01:08:54;64.30;;;28.65;;
23567;SDS011;11962;50.838;4.430;2022-12-18T01:11:20;64.25;;;29.88;;
23567;SDS011;11962;50.838;4.430;2022-12-18T01:13:46;67.18;;;28.77;;
23567;SDS011;11962;50.838;4.430;2022-12-18T01:16:12;64.00;;;27.67;;
23567;SDS011;11962;50.838;4.430;2022-12-18T01:18:39;64.75;;;29.25;;
23567;SDS011;11962;50.838;4.430;2022-12-18T01:21:06;58.88;;;27.75;;
23567;SDS011;11962;50.838;4.430;2022-12-18T01:23:32;59.50;;;27.13;;
23567;SDS011;11962;50.838;4.430;2022-12-18T01:26:03;59.58;;;26.55;;
23567;SDS011;11962;50.838;4.430;2022-12-18T01:28:32;53.80;;;24.27;;
23567;SDS011;11962;50.838;4.430;2022-12-18T01:31:08;58.97;;;27.58;;
23567;SDS011;11962;50.838;4.430;2022-12-18T01:33:43;59.38;;;26.42;;
23567;SDS011;11962;50.838;4.430;2022-12-18T01:36:14;57.92;;;27.77;;
23567;SDS011;11962;50.838;4.430;2022-12-18T01:38:48;61.00;;;27.90;;
23567;SDS011;11962;50.838;4.430;2022-12-18T01:41:15;65.10;;;28.65;;
23567;SDS011;11962;50.838;4.430;2022-12-18T01:43:44;62.83;;;27.85;;
23567;SDS011;11962;50.838;4.430;2022-12-18T01:46:13;60.47;;;26.15;;
23567;SDS011;11962;50.838;4.430;2022-12-18T01:48:39;59.90;;;26.67;;
23567;SDS011;11962;50.838;4.430;2022-12-18T01:51:06;60.90;;;25.65;;
23567;SDS011;11962;50.838;4.430;2022-12-18T01:53:33;65.38;;;26.88;;
23567;SDS011;11962;50.838;4.430;2022-12-18T01:55:59;62.22;;;25.98;;
23567;SDS011;11962;50.838;4.430;2022-12-18T02:01:12;55.73;;;23.13;;
23567;SDS011;11962;50.838;4.430;2022-12-18T02:03:40;52.70;;;23.45;;
23567;SDS011;11962;50.838;4.430;2022-12-18T02:16:54;46.65;;;21.30;;
23567;SDS011;11962;50.838;4.430;2022-12-18T02:22:18;55.53;;;24.58;;
23567;SDS011;11962;50.838;4.430;2022-12-18T02:31:26;56.92;;;23.75;;
23567;SDS011;11962;50.838;4.430;2022-12-18T02:33:56;56.42;;;23.02;;
23567;SDS011;11962;50.838;4.430;2022-12-18T02:36:26;51.42;;;23.23;;
23567;SDS011;11962;50.838;4.430;2022-12-18T02:38:55;47.72;;;21.67;;
23567;SDS011;11962;50.838;4.430;2022-12-18T02:41:21;47.15;;;21.70;;
23567;SDS011;11962;50.838;4.430;2022-12-18T02:43:49;46.03;;;21.83;;
23567;SDS011;11962;50.838;4.430;2022-12-18T02:46:37;46.67;;;21.38;;
23567;SDS011;11962;50.838;4.430;2022-12-18T02:49:22;36.78;;;18.67;;
23567;SDS011;11962;50.838;4.430;2022-12-18T02:51:53;42.03;;;19.13;;
23567;SDS011;11962;50.838;4.430;2022-12-18T02:57:17;48.70;;;21.15;;
23567;SDS011;11962;50.838;4.430;2022-12-18T03:00:10;48.90;;;22.60;;
23567;SDS011;11962;50.838;4.430;2022-12-18T03:05:49;45.53;;;20.83;;
23567;SDS011;11962;50.838;4.430;2022-12-18T03:08:26;45.55;;;20.52;;
23567;SDS011;11962;50.838;4.430;2022-12-18T03:10:55;45.50;;;20.92;;
23567;SDS011;11962;50.838;4.430;2022-12-18T03:13:31;44.83;;;21.15;;
23567;SDS011;11962;50.838;4.430;2022-12-18T03:16:04;46.33;;;20.02;;
23567;SDS011;11962;50.838;4.430;2022-12-18T03:18:52;41.50;;;18.70;;
23567;SDS011;11962;50.838;4.430;2022-12-18T03:21:24;39.95;;;19.25;;
23567;SDS011;11962;50.838;4.430;2022-12-18T03:23:54;35.10;;;16.38;;
23567;SDS011;11962;50.838;4.430;2022-12-18T03:26:22;32.22;;;14.93;;
23567;SDS011;11962;50.838;4.430;2022-12-18T03:28:59;33.45;;;17.00;;
23567;SDS011;11962;50.838;4.430;2022-12-18T03:31:27;35.15;;;15.75;;
23567;SDS011;11962;50.838;4.430;2022-12-18T03:36:23;31.50;;;14.93;;
23567;SDS011;11962;50.838;4.430;2022-12-18T03:38:49;32.03;;;15.10;;
23567;SDS011;11962;50.838;4.430;2022-12-18T03:41:30;30.90;;;14.70;;
23567;SDS011;11962;50.838;4.430;2022-12-18T03:52:30;31.00;;;14.02;;
23567;SDS011;11962;50.838;4.430;2022-12-18T03:55:02;31.35;;;15.23;;
23567;SDS011;11962;50.838;4.430;2022-12-18T03:57:30;36.38;;;15.82;;
23567;SDS011;11962;50.838;4.430;2022-12-18T04:00:03;30.00;;;14.57;;
23567;SDS011;11962;50.838;4.430;2022-12-18T04:02:49;31.75;;;14.77;;
23567;SDS011;11962;50.838;4.430;2022-12-18T04:05:18;29.85;;;14.40;;
23567;SDS011;11962;50.838;4.430;2022-12-18T04:07:45;27.85;;;13.88;;
23567;SDS011;11962;50.838;4.430;2022-12-18T04:10:13;29.23;;;13.27;;
23567;SDS011;11962;50.838;4.430;2022-12-18T04:12:41;27.25;;;13.68;;
23567;SDS011;11962;50.838;4.430;2022-12-18T04:15:07;30.70;;;13.38;;
23567;SDS011;11962;50.838;4.430;2022-12-18T04:17:33;26.35;;;13.25;;
23567;SDS011;11962;50.838;4.430;2022-12-18T04:19:59;26.17;;;13.15;;
23567;SDS011;11962;50.838;4.430;2022-12-18T04:22:25;28.25;;;13.45;;
23567;SDS011;11962;50.838;4.430;2022-12-18T04:24:50;31.80;;;13.38;;
23567;SDS011;11962;50.838;4.430;2022-12-18T04:27:16;25.13;;;12.55;;
23567;SDS011;11962;50.838;4.430;2022-12-18T04:29:42;26.13;;;12.93;;
23567;SDS011;11962;50.838;4.430;2022-12-18T04:32:08;26.88;;;12.93;;
23567;SDS011;11962;50.838;4.430;2022-12-18T04:34:34;29.25;;;13.70;;
23567;SDS011;11962;50.838;4.430;2022-12-18T04:36:59;30.92;;;15.05;;
23567;SDS011;11962;50.838;4.430;2022-12-18T04:39:25;30.33;;;14.80;;
23567;SDS011;11962;50.838;4.430;2022-12-18T04:41:50;31.98;;;15.73;;
23567;SDS011;11962;50.838;4.430;2022-12-18T04:44:16;33.20;;;16.08;;
23567;SDS011;11962;50.838;4.430;2022-12-18T04:46:42;29.75;;;14.32;;
23567;SDS011;11962;50.838;4.430;2022-12-18T04:49:07;32.53;;;14.65;;
23567;SDS011;11962;50.838;4.430;2022-12-18T04:51:35;31.08;;;14.90;;
23567;SDS011;11962;50.838;4.430;2022-12-18T04:54:01;29.63;;;14.60;;
23567;SDS011;11962;50.838;4.430;2022-12-18T04:56:27;31.10;;;14.77;;
23567;SDS011;11962;50.838;4.430;2022-12-18T04:58:52;27.98;;;14.55;;
23567;SDS011;11962;50.838;4.430;2022-12-18T05:01:18;32.60;;;14.75;;
23567;SDS011;11962;50.838;4.430;2022-12-18T05:07:02;32.83;;;14.05;;
23567;SDS011;11962;50.838;4.430;2022-12-18T05:09:28;31.83;;;14.60;;
23567;SDS011;11962;50.838;4.430;2022-12-18T05:11:54;29.17;;;13.15;;
23567;SDS011;11962;50.838;4.430;2022-12-18T05:14:20;29.10;;;13.98;;
23567;SDS011;11962;50.838;4.430;2022-12-18T05:16:45;28.63;;;14.48;;
23567;SDS011;11962;50.838;4.430;2022-12-18T05:19:11;30.50;;;13.90;;
23567;SDS011;11962;50.838;4.430;2022-12-18T05:21:37;29.35;;;13.82;;
23567;SDS011;11962;50.838;4.430;2022-12-18T05:24:03;31.98;;;13.15;;
23567;SDS011;11962;50.838;4.430;2022-12-18T05:26:29;28.52;;;13.13;;
23567;SDS011;11962;50.838;4.430;2022-12-18T05:28:54;28.73;;;13.80;;
23567;SDS011;11962;50.838;4.430;2022-12-18T05:31:21;26.00;;;12.98;;
23567;SDS011;11962;50.838;4.430;2022-12-18T05:43:47;29.80;;;13.02;;
23567;SDS011;11962;50.838;4.430;2022-12-18T05:46:14;25.98;;;12.73;;
23567;SDS011;11962;50.838;4.430;2022-12-18T05:51:31;24.65;;;11.95;;
23567;SDS011;11962;50.838;4.430;2022-12-18T05:53:56;26.90;;;12.55;;
23567;SDS011;11962;50.838;4.430;2022-12-18T05:56:22;25.92;;;12.98;;
23567;SDS011;11962;50.838;4.430;2022-12-18T05:58:51;26.77;;;12.45;;
23567;SDS011;11962;50.838;4.430;2022-12-18T06:01:19;28.73;;;12.85;;
23567;SDS011;11962;50.838;4.430;2022-12-18T06:03:46;25.13;;;12.25;;
23567;SDS011;11962;50.838;4.430;2022-12-18T06:06:26;26.05;;;11.50;;
23567;SDS011;11962;50.838;4.430;2022-12-18T06:08:53;27.50;;;12.55;;
23567;SDS011;11962;50.838;4.430;2022-12-18T06:11:20;24.65;;;11.93;;
23567;SDS011;11962;50.838;4.430;2022-12-18T06:13:54;30.35;;;12.65;;
23567;SDS011;11962;50.838;4.430;2022-12-18T06:16:21;24.52;;;11.43;;
23567;SDS011;11962;50.838;4.430;2022-12-18T06:18:47;26.90;;;12.80;;
23567;SDS011;11962;50.838;4.430;2022-12-18T06:24:09;27.55;;;12.55;;
23567;SDS011;11962;50.838;4.430;2022-12-18T06:26:36;25.60;;;12.40;;
23567;SDS011;11962;50.838;4.430;2022-12-18T06:29:03;27.48;;;12.57;;
23567;SDS011;11962;50.838;4.430;2022-12-18T06:31:29;25.77;;;12.38;;
23567;SDS011;11962;50.838;4.430;2022-12-18T06:33:55;30.92;;;12.85;;
23567;SDS011;11962;50.838;4.430;2022-12-18T06:36:30;24.55;;;12.07;;
23567;SDS011;11962;50.838;4.430;2022-12-18T06:38:56;22.50;;;11.50;;
23567;SDS011;11962;50.838;4.430;2022-12-18T06:41:23;22.02;;;11.02;;
23567;SDS011;11962;50.838;4.430;2022-12-18T06:43:49;22.75;;;10.93;;
23567;SDS011;11962;50.838;4.430;2022-12-18T06:46:15;26.60;;;11.68;;
23567;SDS011;11962;50.838;4.430;2022-12-18T06:48:40;22.80;;;11.90;;
23567;SDS011;11962;50.838;4.430;2022-12-18T06:51:06;23.77;;;10.98;;
23567;SDS011;11962;50.838;4.430;2022-12-18T06:53:32;22.45;;;11.45;;
23567;SDS011;11962;50.838;4.430;2022-12-18T06:56:03;22.65;;;10.98;;
23567;SDS011;11962;50.838;4.430;2022-12-18T06:58:29;23.15;;;11.32;;
23567;SDS011;11962;50.838;4.430;2022-12-18T07:01:02;24.20;;;11.93;;
23567;SDS011;11962;50.838;4.430;2022-12-18T07:03:29;25.95;;;11.52;;
23567;SDS011;11962;50.838;4.430;2022-12-18T07:05:55;20.58;;;10.35;;
23567;SDS011;11962;50.838;4.430;2022-12-18T07:08:21;26.10;;;11.77;;
23567;SDS011;11962;50.838;4.430;2022-12-18T07:10:47;23.75;;;11.50;;
23567;SDS011;11962;50.838;4.430;2022-12-18T07:13:14;18.92;;;10.63;;
23567;SDS011;11962;50.838;4.430;2022-12-18T07:15:43;23.13;;;10.98;;
23567;SDS011;11962;50.838;4.430;2022-12-18T07:18:09;24.55;;;10.90;;
23567;SDS011;11962;50.838;4.430;2022-12-18T07:20:35;22.15;;;10.85;;
23567;SDS011;11962;50.838;4.430;2022-12-18T07:23:04;22.58;;;11.23;;
23567;SDS011;11962;50.838;4.430;2022-12-18T07:25:33;22.88;;;11.23;;
23567;SDS011;11962;50.838;4.430;2022-12-18T07:28:02;23.45;;;11.13;;
23567;SDS011;11962;50.838;4.430;2022-12-18T07:30:28;21.02;;;10.57;;
23567;SDS011;11962;50.838;4.430;2022-12-18T07:32:54;24.38;;;10.32;;
23567;SDS011;11962;50.838;4.430;2022-12-18T07:38:48;21.15;;;9.88;;
23567;SDS011;11962;50.838;4.430;2022-12-18T07:41:14;20.00;;;9.55;;
23567;SDS011;11962;50.838;4.430;2022-12-18T07:43:40;35.65;;;22.95;;
23567;SDS011;11962;50.838;4.430;2022-12-18T07:46:07;19.98;;;10.23;;
23567;SDS011;11962;50.838;4.430;2022-12-18T07:48:33;20.63;;;10.23;;
23567;SDS011;11962;50.838;4.430;2022-12-18T07:51:00;16.85;;;8.48;;
23567;SDS011;11962;50.838;4.430;2022-12-18T07:53:27;17.38;;;9.18;;
23567;SDS011;11962;50.838;4.430;2022-12-18T07:56:00;19.70;;;9.55;;
23567;SDS011;11962;50.838;4.430;2022-12-18T07:58:28;18.80;;;8.85;;
23567;SDS011;11962;50.838;4.430;2022-12-18T08:00:54;14.93;;;8.13;;
23567;SDS011;11962;50.838;4.430;2022-12-18T08:03:31;15.18;;;7.32;;
23567;SDS011;11962;50.838;4.430;2022-12-18T08:06:13;19.45;;;8.52;;
23567;SDS011;11962;50.838;4.430;2022-12-18T08:08:38;13.50;;;7.68;;
23567;SDS011;11962;50.838;4.430;2022-12-18T08:11:06;14.48;;;7.57;;
23567;SDS011;11962;50.838;4.430;2022-12-18T08:13:32;14.13;;;6.82;;
23567;SDS011;11962;50.838;4.430;2022-12-18T08:16:01;15.23;;;7.30;;
23567;SDS011;11962;50.838;4.430;2022-12-18T08:18:29;19.08;;;8.07;;
23567;SDS011;11962;50.838;4.430;2022-12-18T08:21:07;12.57;;;6.75;;
23567;SDS011;11962;50.838;4.430;2022-12-18T08:23:37;14.02;;;6.68;;
23567;SDS011;11962;50.838;4.430;2022-12-18T08:26:03;11.02;;;6.32;;
23567;SDS011;11962;50.838;4.430;2022-12-18T08:28:29;13.60;;;6.35;;
23567;SDS011;11962;50.838;4.430;2022-12-18T08:30:55;13.50;;;6.10;;
23567;SDS011;11962;50.838;4.430;2022-12-18T08:33:20;11.55;;;5.82;;
23567;SDS011;11962;50.838;4.430;2022-12-18T08:38:31;13.38;;;5.95;;
23567;SDS011;11962;50.838;4.430;2022-12-18T08:41:01;10.48;;;5.90;;
23567;SDS011;11962;50.838;4.430;2022-12-18T08:43:28;12.25;;;6.40;;
23567;SDS011;11962;50.838;4.430;2022-12-18T08:46:13;13.35;;;6.47;;
23567;SDS011;11962;50.838;4.430;2022-12-18T08:48:39;9.18;;;5.95;;
23567;SDS011;11962;50.838;4.430;2022-12-18T08:51:04;10.73;;;6.15;;
23567;SDS011;11962;50.838;4.430;2022-12-18T08:53:30;11.07;;;6.40;;
23567;SDS011;11962;50.838;4.430;2022-12-18T08:55:56;13.30;;;6.70;;
23567;SDS011;11962;50.838;4.430;2022-12-18T08:58:22;16.35;;;6.35;;
23567;SDS011;11962;50.838;4.430;2022-12-18T09:00:48;11.52;;;6.32;;
23567;SDS011;11962;50.838;4.430;2022-12-18T09:03:15;12.30;;;6.88;;
23567;SDS011;11962;50.838;4.430;2022-12-18T09:05:42;15.30;;;7.30;;
23567;SDS011;11962;50.838;4.430;2022-12-18T09:08:19;12.13;;;6.80;;
23567;SDS011;11962;50.838;4.430;2022-12-18T09:10:46;11.75;;;6.80;;
23567;SDS011;11962;50.838;4.430;2022-12-18T09:13:13;12.05;;;6.53;;
23567;SDS011;11962;50.838;4.430;2022-12-18T09:15:44;14.23;;;6.93;;
23567;SDS011;11962;50.838;4.430;2022-12-18T09:18:11;12.20;;;6.43;;
23567;SDS011;11962;50.838;4.430;2022-12-18T09:20:38;12.05;;;7.05;;
23567;SDS011;11962;50.838;4.430;2022-12-18T09:23:16;13.02;;;6.70;;
23567;SDS011;11962;50.838;4.430;2022-12-18T09:25:42;12.52;;;7.18;;
23567;SDS011;11962;50.838;4.430;2022-12-18T09:28:11;14.18;;;7.25;;
23567;SDS011;11962;50.838;4.430;2022-12-18T09:30:40;12.88;;;7.15;;
23567;SDS011;11962;50.838;4.430;2022-12-18T09:33:07;11.93;;;7.00;;
23567;SDS011;11962;50.838;4.430;2022-12-18T09:35:35;12.90;;;7.75;;
23567;SDS011;11962;50.838;4.430;2022-12-18T09:38:03;16.52;;;7.80;;
23567;SDS011;11962;50.838;4.430;2022-12-18T09:40:32;15.52;;;7.88;;
23567;SDS011;11962;50.838;4.430;2022-12-18T09:43:03;12.85;;;7.35;;
23567;SDS011;11962;50.838;4.430;2022-12-18T09:45:40;14.27;;;7.70;;
23567;SDS011;11962;50.838;4.430;2022-12-18T09:48:19;13.68;;;7.82;;
23567;SDS011;11962;50.838;4.430;2022-12-18T09:51:17;14.85;;;8.18;;
23567;SDS011;11962;50.838;4.430;2022-12-18T09:53:50;15.02;;;8.07;;
23567;SDS011;11962;50.838;4.430;2022-12-18T09:56:20;15.60;;;7.90;;
23567;SDS011;11962;50.838;4.430;2022-12-18T09:58:50;16.17;;;8.05;;
23567;SDS011;11962;50.838;4.430;2022-12-18T10:01:22;14.68;;;7.82;;
23567;SDS011;11962;50.838;4.430;2022-12-18T10:03:48;14.98;;;8.30;;
23567;SDS011;11962;50.838;4.430;2022-12-18T10:20:48;14.23;;;8.00;;
23567;SDS011;11962;50.838;4.430;2022-12-18T10:26:03;14.93;;;8.40;;
23567;SDS011;11962;50.838;4.430;2022-12-18T10:28:31;15.75;;;9.13;;
23567;SDS011;11962;50.838;4.430;2022-12-18T10:31:00;16.40;;;9.40;;
23567;SDS011;11962;50.838;4.430;2022-12-18T10:33:29;16.90;;;9.05;;
23567;SDS011;11962;50.838;4.430;2022-12-18T10:35:57;16.33;;;9.23;;
23567;SDS011;11962;50.838;4.430;2022-12-18T10:38:28;17.90;;;9.02;;
23567;SDS011;11962;50.838;4.430;2022-12-18T10:41:00;18.67;;;9.52;;
23567;SDS011;11962;50.838;4.430;2022-12-18T10:43:39;18.48;;;9.20;;
23567;SDS011;11962;50.838;4.430;2022-12-18T10:51:31;19.70;;;9.82;;
23567;SDS011;11962;50.838;4.430;2022-12-18T10:54:01;16.92;;;9.57;;
23567;SDS011;11962;50.838;4.430;2022-12-18T10:56:27;17.73;;;10.13;;
23567;SDS011;11962;50.838;4.430;2022-12-18T10:58:56;20.08;;;10.27;;
23567;SDS011;11962;50.838;4.430;2022-12-18T11:01:25;18.20;;;10.48;;
23567;SDS011;11962;50.838;4.430;2022-12-18T11:12:03;17.73;;;10.32;;
23567;SDS011;11962;50.838;4.430;2022-12-18T11:14:43;18.63;;;10.90;;
23567;SDS011;11962;50.838;4.430;2022-12-18T11:17:46;19.45;;;11.13;;
23567;SDS011;11962;50.838;4.430;2022-12-18T11:20:07;20.23;;;10.45;;
23567;SDS011;11962;50.838;4.430;2022-12-18T11:22:57;20.95;;;11.43;;
23567;SDS011;11962;50.838;4.430;2022-12-18T11:25:29;18.70;;;10.63;;
23567;SDS011;11962;50.838;4.430;2022-12-18T11:28:24;19.45;;;11.07;;
23567;SDS011;11962;50.838;4.430;2022-12-18T11:33:42;23.20;;;12.23;;
23567;SDS011;11962;50.838;4.430;2022-12-18T11:36:33;18.67;;;10.88;;
23567;SDS011;11962;50.838;4.430;2022-12-18T11:42:05;22.67;;;11.50;;
23567;SDS011;11962;50.838;4.430;2022-12-18T11:45:14;19.92;;;11.13;;
23567;SDS011;11962;50.838;4.430;2022-12-18T11:50:44;21.73;;;11.50;;
23567;SDS011;11962;50.838;4.430;2022-12-18T11:53:21;20.58;;;11.68;;
23567;SDS011;11962;50.838;4.430;2022-12-18T11:58:34;21.48;;;12.13;;
23567;SDS011;11962;50.838;4.430;2022-12-18T12:04:29;19.77;;;11.10;;
23567;SDS011;11962;50.838;4.430;2022-12-18T12:06:38;18.00;;;11.50;;
23567;SDS011;11962;50.838;4.430;2022-12-18T12:09:31;22.02;;;11.63;;
23567;SDS011;11962;50.838;4.430;2022-12-18T12:15:02;21.13;;;11.88;;
23567;SDS011;11962;50.838;4.430;2022-12-18T12:18:16;22.67;;;12.00;;
23567;SDS011;11962;50.838;4.430;2022-12-18T12:26:02;17.92;;;10.93;;
23567;SDS011;11962;50.838;4.430;2022-12-18T12:28:48;21.42;;;11.05;;
23567;SDS011;11962;50.838;4.430;2022-12-18T12:39:32;24.15;;;12.32;;
23567;SDS011;11962;50.838;4.430;2022-12-18T12:42:02;21.17;;;11.15;;
23567;SDS011;11962;50.838;4.430;2022-12-18T12:44:53;21.80;;;10.97;;
23567;SDS011;11962;50.838;4.430;2022-12-18T12:47:22;18.00;;;10.80;;
23567;SDS011;11962;50.838;4.430;2022-12-18T12:49:54;20.73;;;11.57;;
23567;SDS011;11962;50.838;4.430;2022-12-18T12:52:34;20.55;;;11.55;;
23567;SDS011;11962;50.838;4.430;2022-12-18T12:55:14;20.30;;;11.65;;
23567;SDS011;11962;50.838;4.430;2022-12-18T12:58:28;22.35;;;11.50;;
23567;SDS011;11962;50.838;4.430;2022-12-18T13:00:53;22.15;;;12.55;;
23567;SDS011;11962;50.838;4.430;2022-12-18T13:12:10;20.50;;;11.35;;
23567;SDS011;11962;50.838;4.430;2022-12-18T13:14:55;20.38;;;11.23;;
23567;SDS011;11962;50.838;4.430;2022-12-18T13:17:48;23.92;;;11.93;;
23567;SDS011;11962;50.838;4.430;2022-12-18T13:20:16;23.67;;;12.35;;
23567;SDS011;11962;50.838;4.430;2022-12-18T13:22:43;20.83;;;11.10;;
23567;SDS011;11962;50.838;4.430;2022-12-18T13:25:27;20.27;;;11.77;;
23567;SDS011;11962;50.838;4.430;2022-12-18T13:38:21;26.42;;;12.77;;
23567;SDS011;11962;50.838;4.430;2022-12-18T13:43:55;24.30;;;13.48;;
23567;SDS011;11962;50.838;4.430;2022-12-18T13:46:44;24.90;;;12.73;;
23567;SDS011;11962;50.838;4.430;2022-12-18T13:51:38;24.92;;;13.00;;
23567;SDS011;11962;50.838;4.430;2022-12-18T13:54:27;26.95;;;13.20;;
23567;SDS011;11962;50.838;4.430;2022-12-18T13:57:02;30.55;;;14.18;;
23567;SDS011;11962;50.838;4.430;2022-12-18T13:59:37;24.25;;;13.02;;
23567;SDS011;11962;50.838;4.430;2022-12-18T14:02:07;27.65;;;13.95;;
23567;SDS011;11962;50.838;4.430;2022-12-18T14:04:39;26.40;;;13.85;;
23567;SDS011;11962;50.838;4.430;2022-12-18T14:07:21;27.02;;;14.13;;
23567;SDS011;11962;50.838;4.430;2022-12-18T14:09:53;27.95;;;15.30;;
23567;SDS011;11962;50.838;4.430;2022-12-18T14:15:09;26.05;;;14.13;;
23567;SDS011;11962;50.838;4.430;2022-12-18T14:17:54;27.33;;;14.38;;
23567;SDS011;11962;50.838;4.430;2022-12-18T14:20:28;29.10;;;15.23;;
23567;SDS011;11962;50.838;4.430;2022-12-18T14:22:56;28.23;;;14.85;;
23567;SDS011;11962;50.838;4.430;2022-12-18T14:25:24;31.02;;;15.18;;
23567;SDS011;11962;50.838;4.430;2022-12-18T14:33:13;30.13;;;16.02;;
23567;SDS011;11962;50.838;4.430;2022-12-18T14:35:42;35.50;;;16.67;;
23567;SDS011;11962;50.838;4.430;2022-12-18T14:38:27;30.25;;;16.13;;
23567;SDS011;11962;50.838;4.430;2022-12-18T14:41:01;29.13;;;15.73;;
23567;SDS011;11962;50.838;4.430;2022-12-18T14:43:35;33.60;;;16.30;;
23567;SDS011;11962;50.838;4.430;2022-12-18T14:46:24;28.80;;;15.52;;
23567;SDS011;11962;50.838;4.430;2022-12-18T14:48:58;28.42;;;15.60;;
23567;SDS011;11962;50.838;4.430;2022-12-18T14:51:46;29.35;;;15.18;;
23567;SDS011;11962;50.838;4.430;2022-12-18T14:54:18;28.60;;;15.10;;
23567;SDS011;11962;50.838;4.430;2022-12-18T14:59:47;28.40;;;15.98;;
23567;SDS011;11962;50.838;4.430;2022-12-18T15:02:23;29.63;;;16.00;;
23567;SDS011;11962;50.838;4.430;2022-12-18T15:05:01;34.15;;;17.38;;
23567;SDS011;11962;50.838;4.430;2022-12-18T15:07:39;34.47;;;17.30;;
23567;SDS011;11962;50.838;4.430;2022-12-18T15:20:45;33.53;;;16.25;;
23567;SDS011;11962;50.838;4.430;2022-12-18T15:23:17;32.10;;;16.80;;
23567;SDS011;11962;50.838;4.430;2022-12-18T15:32:00;35.22;;;17.02;;
23567;SDS011;11962;50.838;4.430;2022-12-18T15:34:28;35.15;;;16.63;;
23567;SDS011;11962;50.838;4.430;2022-12-18T15:36:54;32.88;;;16.67;;
23567;SDS011;11962;50.838;4.430;2022-12-18T15:39:19;30.13;;;15.55;;
23567;SDS011;11962;50.838;4.430;2022-12-18T15:45:12;34.60;;;16.73;;
23567;SDS011;11962;50.838;4.430;2022-12-18T15:47:39;30.65;;;15.50;;
23567;SDS011;11962;50.838;4.430;2022-12-18T15:50:07;33.90;;;16.45;;
23567;SDS011;11962;50.838;4.430;2022-12-18T15:52:35;32.60;;;16.23;;
23567;SDS011;11962;50.838;4.430;2022-12-18T15:55:23;33.97;;;16.13;;
23567;SDS011;11962;50.838;4.430;2022-12-18T15:58:08;30.70;;;16.23;;
23567;SDS011;11962;50.838;4.430;2022-12-18T16:00:35;34.65;;;16.65;;
23567;SDS011;11962;50.838;4.430;2022-12-18T16:03:03;34.80;;;17.45;;
23567;SDS011;11962;50.838;4.430;2022-12-18T16:05:29;33.22;;;17.15;;
23567;SDS011;11962;50.838;4.430;2022-12-18T16:07:55;203.63;;;70.10;;
23567;SDS011;11962;50.838;4.430;2022-12-18T16:10:21;39.25;;;17.88;;
23567;SDS011;11962;50.838;4.430;2022-12-18T16:12:47;38.55;;;18.73;;
23567;SDS011;11962;50.838;4.430;2022-12-18T16:15:13;32.53;;;17.20;;
23567;SDS011;11962;50.838;4.430;2022-12-18T16:17:41;30.57;;;14.67;;
23567;SDS011;11962;50.838;4.430;2022-12-18T16:20:18;30.58;;;15.35;;
23567;SDS011;11962;50.838;4.430;2022-12-18T16:22:45;27.83;;;14.68;;
23567;SDS011;11962;50.838;4.430;2022-12-18T16:25:30;30.23;;;15.68;;
23567;SDS011;11962;50.838;4.430;2022-12-18T16:28:38;32.35;;;15.95;;
23567;SDS011;11962;50.838;4.430;2022-12-18T16:31:04;30.45;;;15.93;;
23567;SDS011;11962;50.838;4.430;2022-12-18T16:33:30;28.52;;;14.63;;
23567;SDS011;11962;50.838;4.430;2022-12-18T16:35:55;29.65;;;15.25;;
23567;SDS011;11962;50.838;4.430;2022-12-18T16:38:21;31.60;;;15.95;;
23567;SDS011;11962;50.838;4.430;2022-12-18T16:40:47;28.75;;;15.20;;
23567;SDS011;11962;50.838;4.430;2022-12-18T16:43:31;32.22;;;15.18;;
23567;SDS011;11962;50.838;4.430;2022-12-18T16:45:58;31.00;;;15.50;;
23567;SDS011;11962;50.838;4.430;2022-12-18T16:48:24;35.20;;;16.42;;
23567;SDS011;11962;50.838;4.430;2022-12-18T16:50:50;30.52;;;15.85;;
23567;SDS011;11962;50.838;4.430;2022-12-18T16:53:24;28.65;;;15.15;;
23567;SDS011;11962;50.838;4.430;2022-12-18T16:59:17;31.20;;;15.30;;
23567;SDS011;11962;50.838;4.430;2022-12-18T17:01:43;31.60;;;14.98;;
23567;SDS011;11962;50.838;4.430;2022-12-18T17:04:09;33.38;;;16.92;;
23567;SDS011;11962;50.838;4.430;2022-12-18T17:06:35;34.45;;;16.45;;
23567;SDS011;11962;50.838;4.430;2022-12-18T17:09:06;30.33;;;15.27;;
23567;SDS011;11962;50.838;4.430;2022-12-18T17:14:46;29.95;;;14.65;;
23567;SDS011;11962;50.838;4.430;2022-12-18T17:17:12;30.80;;;14.82;;
23567;SDS011;11962;50.838;4.430;2022-12-18T17:19:37;30.27;;;14.65;;
23567;SDS011;11962;50.838;4.430;2022-12-18T17:22:03;30.15;;;15.10;;
23567;SDS011;11962;50.838;4.430;2022-12-18T17:24:29;29.23;;;14.85;;
23567;SDS011;11962;50.838;4.430;2022-12-18T17:27:01;31.55;;;14.98;;
23567;SDS011;11962;50.838;4.430;2022-12-18T17:29:27;31.20;;;15.68;;
23567;SDS011;11962;50.838;4.430;2022-12-18T17:31:53;35.40;;;15.43;;
23567;SDS011;11962;50.838;4.430;2022-12-18T17:34:19;29.55;;;14.77;;
23567;SDS011;11962;50.838;4.430;2022-12-18T17:36:45;29.15;;;14.98;;
23567;SDS011;11962;50.838;4.430;2022-12-18T17:39:15;27.45;;;15.55;;
23567;SDS011;11962;50.838;4.430;2022-12-18T17:48:30;30.98;;;15.13;;
23567;SDS011;11962;50.838;4.430;2022-12-18T17:51:01;28.38;;;14.38;;
23567;SDS011;11962;50.838;4.430;2022-12-18T17:53:27;30.73;;;15.02;;
23567;SDS011;11962;50.838;4.430;2022-12-18T17:55:57;30.25;;;14.25;;
23567;SDS011;11962;50.838;4.430;2022-12-18T17:58:29;28.90;;;15.15;;
23567;SDS011;11962;50.838;4.430;2022-12-18T18:00:56;30.40;;;16.35;;